Time;durP1;ratioP1;P1;durP2;ratioP2;P2;SDS_P1;SDS_P2;PMS_P1;PMS_P2;Temp;Humidity;BMP_temperature;BMP_pressure;BME280_temperature;BME280_humidity;BME280_pressure;Samples;Min_cycle;Max_cycle;Signal;HPM_P1;HPM_P2
2023/09/14 00:00:50;;;;;;;5.38;2.60;;;10.30;99.90;;;;;;5158643;27;20047;-26
2023/09/14 00:03:16;;;;;;;9.77;3.13;;;10.30;99.90;;;;;;5157807;27;20045;-26
2023/09/14 00:05:43;;;;;;;5.20;2.83;;;10.20;99.90;;;;;;5157706;27;20038;-26
2023/09/14 00:08:10;;;;;;;9.20;3.28;;;10.20;99.90;;;;;;5156409;27;20054;-26
2023/09/14 00:10:36;;;;;;;5.55;2.65;;;10.20;99.90;;;;;;5157599;27;20051;-26
2023/09/14 00:13:02;;;;;;;7.15;2.60;;;10.10;99.90;;;;;;5157477;27;20047;-26
2023/09/14 00:15:28;;;;;;;6.85;2.58;;;10.10;99.90;;;;;;5157516;27;20082;-26
2023/09/14 00:17:54;;;;;;;6.40;2.50;;;10.00;99.90;;;;;;5157461;27;20082;-26
2023/09/14 00:20:21;;;;;;;7.53;2.45;;;9.90;99.90;;;;;;5157501;27;20038;-26
2023/09/14 00:22:50;;;;;;;6.00;2.35;;;9.80;99.90;;;;;;5157268;27;20374;-26
2023/09/14 00:25:20;;;;;;;7.05;2.70;;;9.80;99.90;;;;;;5157313;27;20054;-26
2023/09/14 00:27:46;;;;;;;8.05;2.53;;;9.60;99.90;;;;;;5157318;27;20050;-26
2023/09/14 00:30:13;;;;;;;5.55;2.20;;;9.60;99.90;;;;;;5156268;27;20484;-26
2023/09/14 00:32:40;;;;;;;4.40;2.50;;;9.50;99.90;;;;;;5138695;27;20138;-26
2023/09/14 00:35:07;;;;;;;4.57;2.22;;;9.50;99.90;;;;;;5157111;27;20050;-25
2023/09/14 00:37:33;;;;;;;7.68;3.33;;;9.40;99.90;;;;;;5156373;27;20051;-25
2023/09/14 00:39:59;;;;;;;9.02;2.65;;;9.30;99.90;;;;;;5156756;27;20397;-26
2023/09/14 00:42:24;;;;;;;6.57;2.83;;;9.20;99.90;;;;;;5138560;27;20038;-26
2023/09/14 00:44:50;;;;;;;5.18;2.50;;;9.20;99.90;;;;;;5155691;27;20038;-27
2023/09/14 00:47:16;;;;;;;8.60;2.97;;;9.20;99.90;;;;;;5156286;27;20043;-25
2023/09/14 00:49:42;;;;;;;32.40;4.03;;;9.10;99.90;;;;;;5157600;27;20076;-26
2023/09/14 00:52:10;;;;;;;7.78;3.15;;;9.10;99.90;;;;;;5155534;27;20039;-26
2023/09/14 00:54:38;;;;;;;11.20;4.03;;;9.10;99.90;;;;;;5138659;27;20046;-26
2023/09/14 00:57:04;;;;;;;7.07;3.03;;;9.10;99.90;;;;;;5156805;27;20085;-24
2023/09/14 00:59:31;;;;;;;7.10;3.45;;;9.20;99.90;;;;;;5157195;27;20047;-25
2023/09/14 01:01:57;;;;;;;6.05;3.15;;;9.20;99.90;;;;;;5156596;27;20066;-26
2023/09/14 01:04:23;;;;;;;11.90;3.58;;;9.30;99.90;;;;;;5155426;27;20476;-26
2023/09/14 01:06:49;;;;;;;9.45;3.17;;;9.40;99.90;;;;;;5155866;27;20043;-26
2023/09/14 01:09:15;;;;;;;9.23;3.45;;;9.50;99.90;;;;;;5155296;27;20047;-26
2023/09/14 01:11:41;;;;;;;10.27;3.40;;;9.60;99.90;;;;;;5156326;27;20125;-26
2023/09/14 01:14:23;;;;;;;4.70;3.10;;;9.70;99.90;;;;;;5155131;27;20507;-26
2023/09/14 01:17:19;;;;;;;10.55;3.55;;;9.80;99.90;;;;;;5155143;27;20130;-26
2023/09/14 01:20:03;;;;;;;8.48;3.35;;;10.00;99.90;;;;;;5111013;27;20062;-27
2023/09/14 01:22:56;;;;;;;7.07;3.05;;;10.00;99.90;;;;;;5157147;27;20069;-26
2023/09/14 01:25:39;;;;;;;7.90;2.78;;;10.20;99.90;;;;;;5156250;27;20130;-26
2023/09/14 01:28:09;;;;;;;6.18;3.35;;;10.20;99.90;;;;;;5156149;27;20552;-26
2023/09/14 01:30:37;;;;;;;7.55;2.88;;;10.30;99.90;;;;;;5155123;27;20057;-26
2023/09/14 01:33:09;;;;;;;6.43;2.70;;;10.30;99.90;;;;;;5155960;27;20117;-26
2023/09/14 01:35:40;;;;;;;4.35;2.80;;;10.40;99.90;;;;;;5155356;27;20051;-26
2023/09/14 01:38:07;;;;;;;7.95;2.67;;;10.50;99.90;;;;;;5155988;27;20043;-26
2023/09/14 01:40:34;;;;;;;6.53;2.55;;;10.50;99.90;;;;;;5156434;27;20054;-26
2023/09/14 01:43:04;;;;;;;7.32;2.47;;;10.60;99.90;;;;;;5156377;27;20038;-26
2023/09/14 01:45:33;;;;;;;6.35;2.63;;;10.60;99.90;;;;;;5154943;27;20532;-26
2023/09/14 01:48:00;;;;;;;4.20;2.70;;;10.70;99.90;;;;;;5156132;27;20194;-26
2023/09/14 01:50:26;;;;;;;6.65;2.58;;;10.80;99.90;;;;;;5156073;27;20125;-26
2023/09/14 01:52:53;;;;;;;8.45;2.85;;;10.80;99.90;;;;;;5155303;27;20176;-26
2023/09/14 01:55:19;;;;;;;4.03;2.20;;;10.80;99.90;;;;;;5156231;27;20046;-26
2023/09/14 01:57:45;;;;;;;8.88;2.80;;;10.80;99.90;;;;;;5154908;27;20049;-26
2023/09/14 02:00:11;;;;;;;5.70;2.72;;;10.90;99.90;;;;;;5155609;27;20050;-26
2023/09/14 02:02:37;;;;;;;7.22;2.97;;;10.90;99.90;;;;;;5137803;27;20046;-26
2023/09/14 02:05:03;;;;;;;7.53;2.95;;;10.80;99.90;;;;;;5137920;27;20480;-26
2023/09/14 02:07:29;;;;;;;6.55;2.67;;;10.90;99.90;;;;;;5154369;27;20472;-27
2023/09/14 02:09:54;;;;;;;5.68;2.90;;;10.80;99.90;;;;;;5155462;27;20095;-26
2023/09/14 02:12:20;;;;;;;10.20;3.47;;;10.90;99.90;;;;;;5155921;27;20035;-26
2023/09/14 02:14:46;;;;;;;6.32;2.72;;;10.90;99.90;;;;;;5156034;27;20372;-26
2023/09/14 02:17:12;;;;;;;7.18;2.50;;;10.90;99.90;;;;;;5155372;27;20091;-26
2023/09/14 02:19:38;;;;;;;7.97;2.60;;;10.90;99.90;;;;;;5155335;27;20457;-26
2023/09/14 02:22:03;;;;;;;8.02;3.05;;;10.90;99.90;;;;;;5155613;27;20060;-26
2023/09/14 02:24:29;;;;;;;6.15;2.67;;;10.90;99.90;;;;;;5136870;27;20106;-26
2023/09/14 02:26:55;;;;;;;3.92;2.38;;;10.80;99.90;;;;;;5155336;27;20043;-26
2023/09/14 02:29:21;;;;;;;6.15;2.80;;;10.80;99.90;;;;;;5155553;27;20042;-26
2023/09/14 02:31:47;;;;;;;6.47;3.60;;;10.70;99.90;;;;;;5155190;27;20045;-26
2023/09/14 02:34:12;;;;;;;6.53;2.40;;;10.60;99.90;;;;;;5154949;27;20039;-26
2023/09/14 02:36:39;;;;;;;5.18;3.03;;;10.60;99.90;;;;;;5154264;27;20089;-26
2023/09/14 02:39:05;;;;;;;7.95;3.30;;;10.60;99.90;;;;;;5155205;27;20488;-26
2023/09/14 02:41:31;;;;;;;4.63;2.92;;;10.50;99.90;;;;;;5153942;27;20037;-26
2023/09/14 02:43:57;;;;;;;7.05;3.03;;;10.40;99.90;;;;;;5159745;27;20119;-26
2023/09/14 02:46:22;;;;;;;5.78;2.70;;;10.40;99.90;;;;;;5159261;27;20480;-26
2023/09/14 02:48:48;;;;;;;11.77;3.55;;;10.40;99.90;;;;;;5158448;27;20078;-26
2023/09/14 02:51:14;;;;;;;6.40;2.85;;;10.20;99.90;;;;;;5159100;27;20051;-26
2023/09/14 02:53:40;;;;;;;6.28;2.83;;;10.20;99.90;;;;;;5159129;27;20039;-26
2023/09/14 02:56:10;;;;;;;6.30;2.97;;;10.10;99.90;;;;;;5159116;27;20043;-26
2023/09/14 02:58:36;;;;;;;9.60;3.42;;;10.10;99.90;;;;;;5158922;27;20086;-26
2023/09/14 03:01:11;;;;;;;9.30;3.03;;;10.00;99.90;;;;;;5158925;27;20062;-26
2023/09/14 03:03:38;;;;;;;8.15;3.17;;;9.90;99.90;;;;;;5158316;27;20133;-25
2023/09/14 03:06:04;;;;;;;10.35;3.42;;;9.80;99.90;;;;;;5157930;27;20047;-26
2023/09/14 03:08:30;;;;;;;9.95;3.25;;;9.80;99.90;;;;;;5158853;27;20038;-26
2023/09/14 03:10:56;;;;;;;12.43;3.70;;;9.70;99.90;;;;;;5157868;27;20125;-26
2023/09/14 03:13:22;;;;;;;7.38;3.47;;;9.60;99.90;;;;;;5158703;27;20134;-26
2023/09/14 03:15:56;;;;;;;12.68;4.32;;;9.60;99.90;;;;;;5158745;27;20092;-26
2023/09/14 03:18:22;;;;;;;7.68;4.20;;;9.50;99.90;;;;;;5158529;27;20086;-26
2023/09/14 03:20:53;;;;;;;7.15;3.53;;;9.40;99.90;;;;;;5157377;27;20035;-26
2023/09/14 03:23:19;;;;;;;8.45;3.05;;;9.30;99.90;;;;;;5157035;27;20396;-26
2023/09/14 03:25:45;;;;;;;7.15;3.70;;;9.20;99.90;;;;;;5157391;27;20081;-26
2023/09/14 03:28:11;;;;;;;14.13;3.92;;;9.20;99.90;;;;;;5158485;27;20057;-26
2023/09/14 03:30:37;;;;;;;9.68;3.92;;;9.10;99.90;;;;;;5158501;27;20142;-26
2023/09/14 03:33:04;;;;;;;7.10;3.60;;;9.00;99.90;;;;;;5157173;27;20070;-26
2023/09/14 03:35:29;;;;;;;14.45;5.15;;;8.90;99.90;;;;;;5157152;27;20042;-26
2023/09/14 03:37:55;;;;;;;6.25;3.22;;;8.90;99.90;;;;;;5158307;27;20053;-26
2023/09/14 03:40:21;;;;;;;9.30;4.13;;;8.90;99.90;;;;;;5158485;27;20121;-25
2023/09/14 03:42:49;;;;;;;9.68;3.60;;;8.80;99.90;;;;;;5158771;27;20491;-26
2023/09/14 03:45:15;;;;;;;6.78;3.50;;;8.70;99.90;;;;;;5156890;27;20122;-26
2023/09/14 03:47:41;;;;;;;7.63;3.50;;;8.70;99.90;;;;;;5158275;27;20085;-26
2023/09/14 03:50:09;;;;;;;7.38;3.40;;;8.60;99.90;;;;;;5158070;27;20559;-25
2023/09/14 03:52:35;;;;;;;8.73;3.90;;;8.50;99.90;;;;;;5158012;27;20093;-25
2023/09/14 03:55:04;;;;;;;8.13;3.95;;;8.50;99.90;;;;;;5155528;27;20106;-25
2023/09/14 03:57:30;;;;;;;10.60;4.20;;;8.50;99.90;;;;;;5156367;27;20099;-26
2023/09/14 03:59:56;;;;;;;6.90;3.92;;;8.40;99.90;;;;;;5157945;27;20099;-26
2023/09/14 04:02:23;;;;;;;9.10;4.40;;;8.40;99.90;;;;;;5157814;27;20043;-26
2023/09/14 04:04:50;;;;;;;13.15;4.93;;;8.40;99.90;;;;;;5139553;27;20106;-25
2023/09/14 04:07:16;;;;;;;14.48;3.50;;;8.30;99.90;;;;;;5157716;27;20047;-26
2023/09/14 04:09:42;;;;;;;11.77;4.03;;;8.20;99.90;;;;;;5157748;27;20061;-26
2023/09/14 04:12:08;;;;;;;6.40;3.80;;;8.10;99.90;;;;;;5157561;27;20043;-26
2023/09/14 04:14:34;;;;;;;9.15;3.80;;;8.10;99.90;;;;;;5157590;27;20086;-26
2023/09/14 04:17:01;;;;;;;6.00;4.25;;;8.10;99.90;;;;;;5157586;27;20092;-25
2023/09/14 04:19:28;;;;;;;8.65;4.55;;;8.00;99.90;;;;;;5158139;27;20043;-26
2023/09/14 04:21:54;;;;;;;12.50;4.93;;;8.00;99.90;;;;;;5157209;27;20053;-26
2023/09/14 04:24:20;;;;;;;11.27;5.20;;;8.00;99.90;;;;;;5157422;27;20451;-25
2023/09/14 04:26:46;;;;;;;11.23;5.10;;;8.00;99.90;;;;;;5157256;27;20052;-25
2023/09/14 04:29:12;;;;;;;10.63;4.25;;;7.90;99.90;;;;;;5156134;27;20049;-25
2023/09/14 04:31:38;;;;;;;9.02;4.03;;;7.80;99.90;;;;;;5157126;27;20425;-25
2023/09/14 04:34:07;;;;;;;8.57;4.47;;;7.80;99.90;;;;;;5122123;27;20043;-26
2023/09/14 04:36:33;;;;;;;6.72;4.97;;;7.80;99.90;;;;;;5157710;27;20069;-25
2023/09/14 04:39:03;;;;;;;8.00;3.55;;;7.70;99.90;;;;;;5157608;27;20094;-25
2023/09/14 04:41:30;;;;;;;8.82;4.40;;;7.70;99.90;;;;;;5155875;27;20043;-25
2023/09/14 04:43:56;;;;;;;7.07;3.78;;;7.70;99.90;;;;;;5156728;27;20515;-25
2023/09/14 04:46:22;;;;;;;7.88;4.65;;;7.70;99.90;;;;;;5157001;27;20082;-26
2023/09/14 04:48:48;;;;;;;10.65;4.97;;;7.70;99.90;;;;;;5138306;27;20082;-25
2023/09/14 04:51:14;;;;;;;10.63;4.47;;;7.80;99.90;;;;;;5156747;27;20053;-25
2023/09/14 04:53:40;;;;;;;8.48;4.32;;;7.90;99.90;;;;;;5121120;27;20047;-25
2023/09/14 04:56:06;;;;;;;11.30;3.95;;;7.80;99.90;;;;;;5156720;27;20046;-26
2023/09/14 04:58:32;;;;;;;10.13;4.25;;;7.80;99.90;;;;;;5156741;27;20476;-25
2023/09/14 05:00:58;;;;;;;9.82;3.97;;;7.90;99.90;;;;;;5155651;27;20053;-25
2023/09/14 05:03:23;;;;;;;8.93;3.63;;;7.90;99.90;;;;;;5156622;27;20042;-25
2023/09/14 05:05:51;;;;;;;7.47;3.92;;;7.90;99.90;;;;;;5155389;27;20039;-25
2023/09/14 05:08:16;;;;;;;7.18;4.00;;;7.80;99.90;;;;;;5155011;27;20601;-25
2023/09/14 05:10:42;;;;;;;6.78;3.40;;;7.80;99.90;;;;;;5156405;27;20089;-26
2023/09/14 05:13:08;;;;;;;6.15;3.35;;;7.80;99.90;;;;;;5156600;27;20125;-25
2023/09/14 05:15:33;;;;;;;8.40;3.67;;;7.80;99.90;;;;;;5121234;27;20042;-26
2023/09/14 05:17:59;;;;;;;6.82;3.58;;;7.70;99.90;;;;;;5156890;27;20090;-25
2023/09/14 05:20:25;;;;;;;8.73;4.72;;;7.70;99.90;;;;;;5156553;27;20043;-25
2023/09/14 05:22:51;;;;;;;6.35;3.50;;;7.60;99.90;;;;;;5155219;27;20381;-26
2023/09/14 05:25:16;;;;;;;6.78;3.88;;;7.60;99.90;;;;;;5137992;27;20050;-25
2023/09/14 05:27:42;;;;;;;7.82;3.67;;;7.50;99.90;;;;;;5156383;27;20388;-26
2023/09/14 05:30:09;;;;;;;5.93;3.65;;;7.50;99.90;;;;;;5156972;27;20429;-25
2023/09/14 05:32:36;;;;;;;8.70;4.30;;;7.50;99.90;;;;;;5137616;27;20047;-25
2023/09/14 05:35:02;;;;;;;9.43;3.85;;;7.50;99.90;;;;;;5154769;27;20053;-26
2023/09/14 05:37:28;;;;;;;12.27;5.07;;;7.50;99.90;;;;;;5137692;27;20059;-25
2023/09/14 05:39:55;;;;;;;10.70;4.28;;;7.60;99.90;;;;;;5155258;27;20065;-25
2023/09/14 05:42:22;;;;;;;24.58;4.38;;;7.60;99.90;;;;;;5155482;27;20038;-25
2023/09/14 05:44:48;;;;;;;6.80;4.35;;;7.70;99.90;;;;;;5155884;27;20103;-25
2023/09/14 05:47:14;;;;;;;7.28;4.28;;;7.70;99.90;;;;;;5155392;27;20511;-24
2023/09/14 05:49:41;;;;;;;8.75;4.80;;;7.80;99.90;;;;;;5155611;27;20111;-26
2023/09/14 05:52:06;;;;;;;9.15;4.75;;;7.80;99.90;;;;;;5155658;27;20038;-25
2023/09/14 05:54:32;;;;;;;9.77;5.00;;;7.90;99.90;;;;;;5156294;27;20125;-25
2023/09/14 05:56:58;;;;;;;13.98;4.25;;;8.00;99.90;;;;;;5155620;27;20053;-25
2023/09/14 05:59:23;;;;;;;8.55;4.20;;;8.00;99.90;;;;;;5155826;27;20062;-25
2023/09/14 06:01:50;;;;;;;13.30;4.65;;;8.10;99.90;;;;;;5154472;27;20046;-25
2023/09/14 06:04:17;;;;;;;8.57;4.40;;;8.10;99.90;;;;;;5155545;27;20043;-26
2023/09/14 06:06:43;;;;;;;6.10;4.15;;;8.10;99.90;;;;;;5154419;27;20515;-25
2023/09/14 06:09:08;;;;;;;11.30;4.53;;;8.20;99.90;;;;;;5155494;27;20091;-25
2023/09/14 06:11:34;;;;;;;6.40;4.00;;;8.20;99.90;;;;;;5154369;27;20481;-24
2023/09/14 06:14:00;;;;;;;9.35;4.20;;;8.30;99.90;;;;;;5155414;27;20125;-24
2023/09/14 06:16:27;;;;;;;7.30;3.67;;;8.40;99.90;;;;;;5153883;27;20096;-25
2023/09/14 06:18:52;;;;;;;9.50;4.50;;;8.40;99.90;;;;;;5155038;27;20042;-25
2023/09/14 06:21:19;;;;;;;12.02;4.70;;;8.50;99.90;;;;;;5155647;27;20099;-25
2023/09/14 06:23:46;;;;;;;6.18;3.85;;;8.50;99.90;;;;;;5154143;27;20047;-25
2023/09/14 06:26:12;;;;;;;7.68;3.58;;;8.60;99.90;;;;;;5155372;27;20042;-25
2023/09/14 06:28:38;;;;;;;10.80;4.45;;;8.60;99.90;;;;;;5154105;27;20126;-25
2023/09/14 06:31:03;;;;;;;7.13;4.45;;;8.70;99.90;;;;;;5155832;27;20078;-25
2023/09/14 06:33:30;;;;;;;5.85;3.33;;;8.80;99.90;;;;;;5155157;27;20053;-25
2023/09/14 06:35:55;;;;;;;5.97;3.50;;;8.80;99.90;;;;;;5154817;27;20042;-25
2023/09/14 06:38:21;;;;;;;6.53;3.10;;;8.90;99.90;;;;;;5156043;27;20095;-25
2023/09/14 06:40:47;;;;;;;8.20;3.13;;;8.90;99.90;;;;;;5155156;27;20053;-25
2023/09/14 06:43:13;;;;;;;9.85;4.18;;;9.00;99.90;;;;;;5155104;27;20424;-25
2023/09/14 06:45:39;;;;;;;7.60;3.13;;;9.10;99.90;;;;;;5155150;27;20042;-25
2023/09/14 06:48:05;;;;;;;11.30;3.67;;;9.20;99.90;;;;;;5155600;27;20126;-25
2023/09/14 06:50:31;;;;;;;10.02;3.47;;;9.20;99.90;;;;;;5136635;27;20109;-25
2023/09/14 06:52:57;;;;;;;7.65;3.33;;;9.30;99.90;;;;;;5155808;27;20054;-26
2023/09/14 06:55:22;;;;;;;7.30;3.58;;;9.40;99.90;;;;;;5155670;27;20045;-25
2023/09/14 06:57:48;;;;;;;8.90;3.58;;;9.60;99.90;;;;;;5154307;27;20122;-25
2023/09/14 07:00:15;;;;;;;8.15;3.20;;;9.70;99.90;;;;;;5153903;27;20480;-25
2023/09/14 07:02:41;;;;;;;7.90;3.28;;;9.80;99.90;;;;;;5136681;27;20050;-25
2023/09/14 07:05:09;;;;;;;9.05;3.55;;;10.00;99.90;;;;;;5153674;27;20047;-25
2023/09/14 07:07:36;;;;;;;5.57;2.78;;;10.20;99.90;;;;;;5154999;27;20147;-25
2023/09/14 07:10:02;;;;;;;8.07;2.75;;;10.30;99.90;;;;;;5155544;27;20054;-26
2023/09/14 07:12:28;;;;;;;5.47;2.70;;;10.50;99.90;;;;;;5154746;27;20043;-27
2023/09/14 07:14:53;;;;;;;7.97;2.67;;;10.70;99.90;;;;;;5155361;27;20086;-26
2023/09/14 07:17:19;;;;;;;8.07;2.58;;;10.90;99.90;;;;;;5153741;27;20043;-26
2023/09/14 07:19:45;;;;;;;4.90;2.08;;;11.00;99.90;;;;;;5154782;27;20046;-26
2023/09/14 07:22:10;;;;;;;6.60;2.28;;;11.20;99.90;;;;;;5153510;27;20039;-26
2023/09/14 07:24:36;;;;;;;9.15;1.90;;;11.30;99.90;;;;;;5154700;27;20038;-26
2023/09/14 07:27:02;;;;;;;8.10;1.98;;;11.50;99.90;;;;;;5154453;27;20093;-27
2023/09/14 07:29:28;;;;;;;6.30;1.60;;;11.70;99.90;;;;;;5157397;27;20043;-27
2023/09/14 07:31:55;;;;;;;5.97;2.00;;;11.90;99.90;;;;;;5157716;27;20369;-26
2023/09/14 07:34:21;;;;;;;6.53;1.45;;;12.10;99.90;;;;;;5157080;27;20125;-26
2023/09/14 07:36:46;;;;;;;6.88;1.80;;;12.30;99.90;;;;;;5158189;27;20077;-26
2023/09/14 07:39:12;;;;;;;5.82;2.30;;;12.40;99.90;;;;;;5157298;27;20125;-26
2023/09/14 07:41:38;;;;;;;9.65;2.38;;;12.60;99.90;;;;;;5158521;27;20039;-26
2023/09/14 07:44:04;;;;;;;5.57;1.35;;;12.80;99.90;;;;;;5159004;27;20049;-26
2023/09/14 07:46:31;;;;;;;4.10;1.50;;;12.90;99.90;;;;;;5157179;27;20069;-27
2023/09/14 07:48:56;;;;;;;5.45;1.42;;;13.10;99.90;;;;;;5158032;27;20047;-27
2023/09/14 07:51:22;;;;;;;5.03;1.45;;;13.30;99.90;;;;;;5156968;27;20043;-26
2023/09/14 07:53:48;;;;;;;5.22;1.15;;;13.50;99.90;;;;;;5158560;27;20042;-26
2023/09/14 07:56:13;;;;;;;5.00;1.40;;;13.70;99.90;;;;;;5156795;27;20038;-26
2023/09/14 07:58:39;;;;;;;7.05;1.55;;;13.90;99.90;;;;;;5157677;27;20096;-26
2023/09/14 08:01:05;;;;;;;8.05;1.90;;;14.00;99.90;;;;;;5157455;27;20046;-27
2023/09/14 08:03:31;;;;;;;7.70;1.58;;;14.10;99.90;;;;;;5158066;27;20100;-26
2023/09/14 08:05:57;;;;;;;4.75;1.17;;;14.30;71.10;;;;;;5157421;27;20504;-27
2023/09/14 08:08:23;;;;;;;3.78;0.88;;;14.40;1.00;;;;;;5158227;27;20043;-26
2023/09/14 08:10:53;;;;;;;4.30;1.20;;;14.60;1.00;;;;;;5158756;27;20042;-27
2023/09/14 08:13:19;;;;;;;5.60;1.17;;;14.80;99.90;;;;;;5157590;27;20046;-26
2023/09/14 08:15:46;;;;;;;5.47;1.40;;;15.00;99.90;;;;;;5157584;27;20034;-27
2023/09/14 08:18:12;;;;;;;5.28;1.10;;;15.20;99.90;;;;;;5158054;27;20074;-26
2023/09/14 08:20:38;;;;;;;3.20;1.02;;;15.30;99.90;;;;;;5156481;27;20082;-27
2023/09/14 08:23:04;;;;;;;6.60;1.10;;;15.40;7.80;;;;;;5156812;27;20039;-27
2023/09/14 08:25:30;;;;;;;6.18;1.33;;;15.60;72.40;;;;;;5157458;27;20441;-26
2023/09/14 08:27:59;;;;;;;5.40;1.10;;;15.70;1.00;;;;;;5157272;27;20053;-26
2023/09/14 08:30:24;;;;;;;8.13;1.25;;;15.80;1.00;;;;;;5157274;27;20046;-26
2023/09/14 08:32:50;;;;;;;3.53;1.00;;;15.70;99.90;;;;;;5156800;27;20038;-26
2023/09/14 08:35:24;;;;;;;6.70;1.33;;;15.80;99.90;;;;;;5157221;27;20563;-27
2023/09/14 08:37:54;;;;;;;2.88;0.85;;;15.70;99.90;;;;;;5157169;27;20046;-27
2023/09/14 08:40:22;;;;;;;6.07;1.10;;;15.70;99.90;;;;;;5156408;27;20535;-27
2023/09/14 08:42:51;;;;;;;5.25;1.25;;;15.80;99.90;;;;;;5156944;27;20130;-27
2023/09/14 08:45:37;;;;;;;4.15;1.25;;;15.80;99.90;;;;;;5157561;27;20100;-26
2023/09/14 08:48:05;;;;;;;4.35;1.70;;;15.80;1.00;;;;;;5156978;27;20046;-28
2023/09/14 08:50:32;;;;;;;7.47;1.40;;;15.90;99.90;;;;;;5155700;27;20035;-27
2023/09/14 08:52:59;;;;;;;5.90;1.05;;;16.20;99.90;;;;;;5157325;27;20038;-27
2023/09/14 08:55:29;;;;;;;4.85;1.13;;;16.40;2.10;;;;;;5155627;27;20095;-27
2023/09/14 08:57:57;;;;;;;4.10;1.65;;;16.50;99.90;;;;;;5156027;27;20107;-27
2023/09/14 09:00:26;;;;;;;6.53;1.02;;;16.60;1.00;;;;;;5156397;27;20059;-27
2023/09/14 09:02:53;;;;;;;4.97;0.80;;;16.80;1.00;;;;;;5155532;27;20046;-26
2023/09/14 09:05:21;;;;;;;5.13;1.50;;;17.00;1.00;;;;;;5156596;27;20484;-26
2023/09/14 09:07:50;;;;;;;5.90;1.00;;;17.40;1.00;;;;;;5137702;27;20043;-27
2023/09/14 09:10:16;;;;;;;6.53;1.23;;;;;;;;;;5155826;27;20430;-27
2023/09/14 09:12:43;;;;;;;4.85;1.23;;;19.00;99.90;;;;;;5156999;27;20430;-27
2023/09/14 09:15:10;;;;;;;7.15;1.33;;;19.40;99.90;;;;;;5156400;27;20042;-27
2023/09/14 09:17:39;;;;;;;6.32;1.30;;;20.10;99.90;;;;;;5155398;27;20083;-27
2023/09/14 09:20:19;;;;;;;6.47;1.52;;;20.30;1.00;;;;;;5155613;27;20137;-27
2023/09/14 09:22:45;;;;;;;4.88;1.30;;;20.10;1.00;;;;;;5156323;27;20049;-27
2023/09/14 09:25:12;;;;;;;7.05;1.55;;;20.10;1.00;;;;;;5156477;27;20047;-27
2023/09/14 09:27:39;;;;;;;5.78;1.20;;;20.20;1.00;;;;;;5155764;27;20047;-27
2023/09/14 09:30:09;;;;;;;6.75;1.70;;;20.70;1.00;;;;;;5156114;27;20049;-28
2023/09/14 09:32:38;;;;;;;5.95;1.27;;;20.60;1.00;;;;;;5156028;27;20046;-27
2023/09/14 09:35:19;;;;;;;7.28;2.28;;;20.90;99.90;;;;;;5156080;27;20396;-27
2023/09/14 09:37:45;;;;;;;5.50;1.70;;;20.60;99.90;;;;;;5156360;27;20374;-27
2023/09/14 09:40:21;;;;;;;7.40;1.02;;;20.70;99.90;;;;;;5155915;27;20130;-27
2023/09/14 09:42:48;;;;;;;4.30;1.30;;;20.60;99.90;;;;;;5156521;27;20376;-28
2023/09/14 09:45:14;;;;;;;3.33;0.90;;;20.40;99.90;;;;;;5155881;27;20047;-28
2023/09/14 09:47:41;;;;;;;7.78;1.45;;;20.50;99.90;;;;;;5156316;27;20047;-27
2023/09/14 09:50:09;;;;;;;8.63;1.65;;;20.50;99.90;;;;;;5155796;27;20043;-27
2023/09/14 09:52:36;;;;;;;5.55;1.00;;;20.60;99.90;;;;;;5154737;27;20042;-27
2023/09/14 09:55:02;;;;;;;5.80;1.23;;;20.70;99.90;;;;;;5155690;27;20122;-27
2023/09/14 09:57:32;;;;;;;6.10;1.58;;;20.50;99.90;;;;;;5155649;27;20129;-28
2023/09/14 09:59:57;;;;;;;8.23;1.77;;;20.60;99.90;;;;;;5156173;27;20187;-28
2023/09/14 10:02:33;;;;;;;3.95;1.13;;;20.70;99.90;;;;;;5155758;27;20117;-27
2023/09/14 10:04:59;;;;;;;4.82;1.45;;;20.70;53.20;;;;;;5155540;27;20053;-27
2023/09/14 10:07:25;;;;;;;6.05;1.60;;;20.70;99.90;;;;;;5154315;27;20043;-27
2023/09/14 10:09:54;;;;;;;4.55;1.20;;;21.20;99.90;;;;;;5155480;27;20060;-27
2023/09/14 10:12:24;;;;;;;5.10;1.38;;;22.00;96.70;;;;;;5154334;27;20091;-28
2023/09/14 10:14:55;;;;;;;4.47;1.33;;;22.40;28.60;;;;;;5154500;27;20043;-28
2023/09/14 10:17:28;;;;;;;4.57;1.60;;;22.00;1.00;;;;;;5137365;27;20053;-28
2023/09/14 10:19:55;;;;;;;5.35;1.58;;;22.10;1.00;;;;;;5156312;27;20430;-28
2023/09/14 10:22:23;;;;;;;4.03;1.23;;;22.10;1.00;;;;;;5154410;27;20054;-28
2023/09/14 10:24:50;;;;;;;6.25;1.40;;;22.20;1.00;;;;;;5137974;27;20384;-27
2023/09/14 10:27:16;;;;;;;5.05;0.90;;;22.20;1.00;;;;;;5154229;27;20054;-27
2023/09/14 10:29:43;;;;;;;4.25;1.50;;;22.50;1.00;;;;;;5155867;27;20046;-27
2023/09/14 10:32:11;;;;;;;10.95;2.05;;;23.20;10.60;;;;;;5154029;27;20068;-27
2023/09/14 10:34:39;;;;;;;4.75;1.75;;;23.20;33.60;;;;;;5155243;27;20047;-27
2023/09/14 10:37:04;;;;;;;6.43;1.50;;;23.30;46.30;;;;;;5155523;27;20054;-27
2023/09/14 10:39:30;;;;;;;5.93;1.30;;;24.00;66.10;;;;;;5155251;27;20507;-27
2023/09/14 10:41:56;;;;;;;5.22;1.30;;;24.00;15.20;;;;;;5153951;27;20368;-27
2023/09/14 10:44:22;;;;;;;8.75;1.80;;;23.10;1.00;;;;;;5155138;27;20559;-27
2023/09/14 10:46:52;;;;;;;8.23;2.13;;;22.00;1.00;;;;;;5153863;27;20071;-28
2023/09/14 10:49:24;;;;;;;4.82;1.60;;;21.60;1.00;;;;;;5155029;27;20047;-29
2023/09/14 10:51:50;;;;;;;4.72;1.35;;;21.40;1.00;;;;;;5155093;27;20552;-27
2023/09/14 10:54:15;;;;;;;6.30;1.70;;;21.10;1.00;;;;;;5154051;27;20125;-27
2023/09/14 10:56:41;;;;;;;6.68;1.50;;;21.70;18.30;;;;;;5153623;27;20123;-27
2023/09/14 10:59:08;;;;;;;5.03;1.48;;;21.50;1.00;;;;;;5154713;27;20050;-27
2023/09/14 11:01:48;;;;;;;7.00;2.00;;;21.00;34.00;;;;;;5155002;27;20046;-27
2023/09/14 11:04:18;;;;;;;5.05;1.58;;;21.00;99.90;;;;;;5157612;27;20050;-28
2023/09/14 11:06:49;;;;;;;6.40;1.70;;;21.50;93.80;;;;;;5158966;27;20047;-29
2023/09/14 11:09:15;;;;;;;5.82;1.42;;;22.10;15.00;;;;;;5140486;27;20043;-27
2023/09/14 11:11:46;;;;;;;7.28;1.70;;;22.70;54.30;;;;;;5158775;27;20049;-27
2023/09/14 11:14:13;;;;;;;6.10;1.85;;;22.90;15.80;;;;;;5158731;27;20046;-27
2023/09/14 11:16:46;;;;;;;5.97;1.40;;;23.00;5.60;;;;;;5157775;27;20129;-27
2023/09/14 11:19:30;;;;;;;7.20;1.58;;;23.20;1.00;;;;;;5158721;27;20082;-27
2023/09/14 11:22:04;;;;;;;7.30;2.10;;;23.00;1.00;;;;;;5157648;27;20047;-27
2023/09/14 11:24:34;;;;;;;5.97;1.70;;;21.80;1.00;;;;;;5159538;27;20043;-27
2023/09/14 11:27:00;;;;;;;7.47;1.48;;;21.00;1.00;;;;;;5158574;27;20068;-27
2023/09/14 11:29:27;;;;;;;5.45;1.40;;;21.00;76.00;;;;;;5158498;27;20051;-27
2023/09/14 11:32:06;;;;;;;5.45;1.90;;;21.60;98.80;;;;;;5158379;27;20122;-27
2023/09/14 11:34:32;;;;;;;5.20;1.52;;;21.80;1.00;;;;;;5123088;27;20082;-27
2023/09/14 11:36:59;;;;;;;4.28;1.98;;;22.20;3.10;;;;;;5158407;27;20107;-27
2023/09/14 11:39:25;;;;;;;6.00;2.00;;;22.70;13.10;;;;;;5158284;27;20034;-27
2023/09/14 11:41:52;;;;;;;6.53;1.80;;;23.10;1.00;;;;;;5157277;27;20053;-27
2023/09/14 11:44:18;;;;;;;7.03;1.98;;;23.40;1.00;;;;;;5156936;27;20050;-28
2023/09/14 11:46:47;;;;;;;6.85;1.95;;;23.10;1.00;;;;;;5158103;27;20467;-27
2023/09/14 11:49:14;;;;;;;6.40;1.88;;;22.90;1.00;;;;;;5158119;27;20043;-27
2023/09/14 11:51:39;;;;;;;6.10;1.98;;;22.00;1.00;;;;;;5158002;27;20046;-27
2023/09/14 11:54:09;;;;;;;6.35;1.80;;;22.00;1.00;;;;;;5158033;27;20099;-27
2023/09/14 11:56:35;;;;;;;4.32;1.52;;;22.00;1.00;;;;;;5158037;27;20056;-27
2023/09/14 11:59:02;;;;;;;5.10;1.88;;;22.30;1.00;;;;;;5157404;27;20053;-27
2023/09/14 12:01:33;;;;;;;6.05;2.28;;;23.10;1.00;;;;;;5140432;27;20480;-29
2023/09/14 12:03:58;;;;;;;4.65;1.60;;;23.30;1.00;;;;;;5157724;27;20145;-28
2023/09/14 12:06:26;;;;;;;4.03;1.55;;;23.50;1.00;;;;;;5157699;27;20496;-28
2023/09/14 12:08:52;;;;;;;6.18;1.77;;;23.50;1.00;;;;;;5157088;27;20046;-28
2023/09/14 12:11:19;;;;;;;5.38;2.22;;;23.80;1.00;;;;;;5156458;27;20499;-28
2023/09/14 12:13:55;;;;;;;9.05;2.08;;;24.20;1.00;;;;;;5138930;27;20045;-27
2023/09/14 12:16:27;;;;;;;7.88;1.63;;;24.40;1.00;;;;;;5156594;27;20046;-27
2023/09/14 12:18:53;;;;;;;7.72;2.00;;;24.30;1.00;;;;;;5157529;27;20046;-27
2023/09/14 12:21:20;;;;;;;5.93;1.85;;;24.70;1.00;;;;;;5157479;27;20039;-29
2023/09/14 12:23:48;;;;;;;9.30;1.95;;;24.90;1.00;;;;;;5157458;27;20050;-29
2023/09/14 12:26:18;;;;;;;8.85;1.77;;;24.70;1.00;;;;;;5157465;27;20042;-28
2023/09/14 12:28:51;;;;;;;6.43;1.98;;;24.00;1.00;;;;;;5156319;27;20050;-27
2023/09/14 12:31:19;;;;;;;5.15;1.55;;;23.70;1.00;;;;;;5157396;27;20089;-28
2023/09/14 12:33:45;;;;;;;5.90;1.88;;;24.10;1.00;;;;;;5158030;27;20043;-28
2023/09/14 12:36:11;;;;;;;6.40;1.98;;;24.30;1.00;;;;;;5157266;27;20046;-28
2023/09/14 12:38:40;;;;;;;6.97;2.22;;;24.80;1.00;;;;;;5156094;27;20118;-31
2023/09/14 12:41:06;;;;;;;7.40;1.83;;;24.40;1.00;;;;;;5138786;27;20095;-28
2023/09/14 12:43:33;;;;;;;6.30;2.42;;;24.30;1.00;;;;;;5157613;27;20082;-28
2023/09/14 12:46:00;;;;;;;5.95;1.90;;;24.50;1.00;;;;;;5157048;27;20054;-28
2023/09/14 12:48:29;;;;;;;4.85;1.75;;;24.40;1.00;;;;;;5155459;27;20488;-29
2023/09/14 12:50:56;;;;;;;6.32;1.83;;;23.90;1.00;;;;;;5156769;27;20377;-29
2023/09/14 12:53:25;;;;;;;5.18;1.88;;;23.90;1.00;;;;;;5156795;27;20058;-28